KFME/FME METAR and TAF weather

Enter ICAO airport designator
Station Type Date Time Source
KFME METAR 2020/07/08 01:15 UTC NOAA

KFME 080115Z AUTO 00000KT 10SM CLR 23/22 A3003 RMK AO1


Station Type Date Time Source
KFME Decoded METAR 2020/07/08 01:15 UTC NOAA

Fort Meade / Tipton, MD, United States (KFME) 39-05N 076-46W
Jul 07, 2020 - 09:15 PM EDT / 2020.07.08 0115 UTC
Wind: Calm:0
Visibility: 10 mile(s):0
Sky conditions: clear
Temperature: 73 F (23 C)
Dew Point: 71 F (22 C)
Relative Humidity: 94%
Pressure (altimeter): 30.03 in. Hg (1016 hPa)
ob: KFME 080115Z AUTO 00000KT 10SM CLR 23/22 A3003 RMK AO1
cycle: 1

Station Type Date Time Source
KFME TAF UTC NOAA

Error!

Example: see airport list